createdAt,value
2017-08-26T00:01:02.116Z,4.37
2017-08-26T00:03:30.386Z,4.27
2017-08-26T00:05:59.466Z,5.63
2017-08-26T00:08:27.747Z,3.60
2017-08-26T00:10:56.787Z,4.87
2017-08-26T00:13:26.246Z,3.90
2017-08-26T00:15:55.882Z,6.97
2017-08-26T00:18:24.811Z,3.90
2017-08-26T00:20:53.150Z,4.13
2017-08-26T00:23:21.424Z,6.13
2017-08-26T00:25:50.464Z,5.13
2017-08-26T00:28:18.804Z,4.47
2017-08-26T00:30:48.582Z,4.70
2017-08-26T00:33:18.243Z,4.73
2017-08-26T00:35:46.834Z,4.63
2017-08-26T00:38:15.111Z,4.80
2017-08-26T00:40:43.387Z,4.50
2017-08-26T00:43:12.066Z,5.20
2017-08-26T00:45:41.475Z,5.03
2017-08-26T00:48:09.789Z,4.50
2017-08-26T00:50:38.118Z,7.00
2017-08-26T00:53:06.448Z,7.70
2017-08-26T00:55:36.260Z,5.40
2017-08-26T00:58:04.993Z,5.67
2017-08-26T01:00:34.771Z,4.93
2017-08-26T01:03:03.048Z,5.80
2017-08-26T01:05:32.126Z,6.73
2017-08-26T01:08:00.407Z,7.47
2017-08-26T01:10:28.687Z,5.30
2017-08-26T01:12:57.015Z,5.20
2017-08-26T01:15:26.431Z,5.83
2017-08-26T01:17:55.504Z,5.87
2017-08-26T01:20:25.011Z,7.37
2017-08-26T01:22:53.282Z,6.50
2017-08-26T01:25:21.563Z,5.33
2017-08-26T01:27:49.902Z,8.53
2017-08-26T01:30:18.180Z,5.40
2017-08-26T01:32:46.480Z,6.37
2017-08-26T01:35:15.955Z,7.60
2017-08-26T01:37:44.236Z,7.20
2017-08-26T01:40:12.506Z,7.03
2017-08-26T01:42:41.971Z,6.00
2017-08-26T01:45:11.598Z,7.93
2017-08-26T01:47:40.166Z,8.37
2017-08-26T01:50:10.083Z,5.40
2017-08-26T01:52:38.376Z,6.00
2017-08-26T01:55:06.679Z,8.50
2017-08-26T01:57:36.499Z,7.20
2017-08-26T02:00:04.777Z,7.10
2017-08-26T02:02:33.072Z,6.93
2017-08-26T02:05:01.827Z,7.00
2017-08-26T02:07:30.866Z,6.60
2017-08-26T02:10:00.494Z,7.00
2017-08-26T02:12:29.492Z,6.33
2017-08-26T02:14:57.766Z,7.00
2017-08-26T02:17:26.046Z,7.50
2017-08-26T02:19:55.758Z,7.03
2017-08-26T02:22:24.311Z,7.57
2017-08-26T02:24:53.753Z,7.77
2017-08-26T02:27:22.978Z,6.30
2017-08-26T02:29:52.023Z,8.17
2017-08-26T02:32:21.071Z,29.90
2017-08-26T02:34:50.171Z,26.13
2017-08-26T02:37:18.461Z,25.07
2017-08-26T02:39:46.737Z,23.40
2017-08-26T02:42:15.084Z,19.70
2017-08-26T02:44:44.498Z,18.60
2017-08-26T02:47:13.552Z,17.00
2017-08-26T02:49:43.039Z,17.13
2017-08-26T02:52:11.327Z,16.53
2017-08-26T02:54:41.122Z,16.17
2017-08-26T02:57:10.241Z,16.23
2017-08-26T02:59:39.670Z,16.27
2017-08-26T03:02:07.973Z,17.60
2017-08-26T03:04:36.330Z,17.60
2017-08-26T03:07:04.624Z,17.43
2017-08-26T03:09:33.674Z,16.70
2017-08-26T03:12:03.354Z,16.13
2017-08-26T03:14:31.934Z,18.00
2017-08-26T03:17:00.220Z,16.30
2017-08-26T03:19:28.583Z,14.57
2017-08-26T03:21:56.876Z,15.10
2017-08-26T03:24:25.172Z,12.10
2017-08-26T03:26:54.820Z,13.70
2017-08-26T03:29:23.112Z,13.33
2017-08-26T03:31:51.393Z,15.17
2017-08-26T03:34:19.735Z,12.43
2017-08-26T03:36:48.019Z,11.60
2017-08-26T03:39:16.313Z,11.80
2017-08-26T03:41:45.779Z,11.57
2017-08-26T03:44:14.067Z,12.70
2017-08-26T03:46:42.345Z,12.17
2017-08-26T03:49:12.030Z,12.57
2017-08-26T03:51:40.604Z,12.57
2017-08-26T03:54:10.250Z,14.00
2017-08-26T03:56:39.992Z,14.27
2017-08-26T03:59:08.299Z,12.50
2017-08-26T04:01:36.599Z,13.70
2017-08-26T04:04:04.955Z,20.13
2017-08-26T04:06:34.380Z,13.10
2017-08-26T04:09:02.674Z,16.40
2017-08-26T04:11:31.015Z,15.33
2017-08-26T04:13:59.298Z,14.23
2017-08-26T04:16:27.583Z,14.83
2017-08-26T04:18:55.931Z,15.57
2017-08-26T04:21:25.375Z,14.47
2017-08-26T04:23:53.683Z,15.20
2017-08-26T04:26:22.011Z,16.20
2017-08-26T04:28:50.298Z,17.90
2017-08-26T04:31:19.925Z,17.93
2017-08-26T04:33:48.543Z,16.93
2017-08-26T04:36:17.607Z,16.60
2017-08-26T04:38:45.896Z,20.93
2017-08-26T04:41:15.751Z,18.47
2017-08-26T04:43:44.036Z,19.53
2017-08-26T04:46:12.336Z,17.50
2017-08-26T04:48:40.688Z,19.30
2017-08-26T04:51:09.392Z,17.70
2017-08-26T04:53:38.824Z,19.73
2017-08-26T04:56:07.174Z,21.20
2017-08-26T04:58:35.484Z,17.57
2017-08-26T05:01:03.776Z,20.80
2017-08-26T05:03:32.123Z,18.27
2017-08-26T05:06:01.553Z,18.50
2017-08-26T05:08:29.840Z,18.90
2017-08-26T05:10:58.179Z,19.23
2017-08-26T05:13:27.231Z,17.13
2017-08-26T05:15:55.528Z,16.90
2017-08-26T05:18:25.396Z,16.77
2017-08-26T05:20:53.697Z,19.50
2017-08-26T05:23:23.339Z,16.53
2017-08-26T05:25:51.951Z,16.07
2017-08-26T05:28:20.238Z,18.60
2017-08-26T05:30:48.531Z,17.60
2017-08-26T05:33:16.858Z,17.20
2017-08-26T05:35:45.151Z,15.87
2017-08-26T05:38:13.441Z,19.93
2017-08-26T05:40:42.947Z,17.03
2017-08-26T05:43:11.631Z,18.30
2017-08-26T05:45:41.431Z,17.30
2017-08-26T05:48:09.791Z,17.37
2017-08-26T05:50:38.846Z,14.97
2017-08-26T05:53:07.160Z,16.43
2017-08-26T05:55:35.518Z,22.43
2017-08-26T05:58:04.568Z,17.63
2017-08-26T06:00:33.251Z,17.73
2017-08-26T06:03:01.858Z,15.33
2017-08-26T06:05:31.650Z,16.60
2017-08-26T06:07:59.935Z,15.37
2017-08-26T06:10:28.271Z,17.27
2017-08-26T06:12:56.563Z,15.03
2017-08-26T06:15:24.868Z,16.20
2017-08-26T06:17:54.374Z,17.27
2017-08-26T06:20:22.658Z,15.17
2017-08-26T06:22:50.934Z,18.87
2017-08-26T06:25:19.286Z,15.90
2017-08-26T06:27:47.584Z,16.23
2017-08-26T06:30:17.392Z,25.03
2017-08-26T06:32:45.732Z,22.67
2017-08-26T06:35:14.784Z,27.10
2017-08-26T06:37:43.070Z,25.37
2017-08-26T06:40:11.435Z,27.50
2017-08-26T06:42:39.751Z,27.93
2017-08-26T06:45:08.066Z,22.43
2017-08-26T06:47:37.583Z,22.27
2017-08-26T06:50:06.291Z,28.40
2017-08-26T06:52:34.578Z,29.80
2017-08-26T06:55:02.933Z,30.83
2017-08-26T06:57:32.563Z,33.53
2017-08-26T07:00:00.723Z,33.60
2017-08-26T07:02:29.099Z,32.57
2017-08-26T07:04:58.524Z,37.40
2017-08-26T07:07:26.811Z,40.07
2017-08-26T07:09:57.883Z,46.10
2017-08-26T07:12:26.572Z,40.93
2017-08-26T07:14:55.638Z,41.03
2017-08-26T07:17:23.994Z,41.50
2017-08-26T07:19:53.048Z,41.70
2017-08-26T07:22:22.479Z,40.80
2017-08-26T07:24:51.223Z,45.90
2017-08-26T07:27:19.512Z,40.50
2017-08-26T07:29:49.306Z,40.50
2017-08-26T07:32:17.642Z,43.03
2017-08-26T07:34:45.931Z,43.67
2017-08-26T07:37:14.222Z,41.73
2017-08-26T07:39:42.554Z,46.63
2017-08-26T07:42:10.854Z,44.07
2017-08-26T07:44:39.152Z,40.20
2017-08-26T07:47:08.631Z,43.87
2017-08-26T07:49:36.931Z,51.67
2017-08-26T07:52:06.589Z,53.73
2017-08-26T07:54:35.578Z,51.00
2017-08-26T07:57:03.867Z,51.57
2017-08-26T07:59:32.920Z,61.73
2017-08-26T08:02:02.035Z,71.33
2017-08-26T08:04:31.084Z,68.77
2017-08-26T08:06:59.764Z,66.30
2017-08-26T08:09:29.254Z,69.07
2017-08-26T08:12:00.228Z,69.00
2017-08-26T08:14:29.311Z,75.47
2017-08-26T08:16:57.626Z,68.43
2017-08-26T08:19:25.931Z,68.30
2017-08-26T08:21:54.236Z,66.00
2017-08-26T08:24:22.573Z,65.10
2017-08-26T08:26:50.855Z,57.47
2017-08-26T08:29:20.646Z,57.47
2017-08-26T08:31:50.462Z,53.77
2017-08-26T08:34:19.396Z,47.90
2017-08-26T08:36:48.442Z,46.73
2017-08-26T08:39:17.545Z,47.20
2017-08-26T08:41:46.598Z,50.97
2017-08-26T08:44:14.891Z,47.57
2017-08-26T08:46:43.234Z,54.43
2017-08-26T08:49:13.027Z,65.77
2017-08-26T08:51:41.331Z,65.23
2017-08-26T08:54:09.685Z,61.07
2017-08-26T08:56:37.974Z,59.30
2017-08-26T08:59:07.620Z,57.33
2017-08-26T09:01:35.830Z,52.83
2017-08-26T09:04:04.124Z,59.00
2017-08-26T09:06:32.406Z,49.03
2017-08-26T09:09:00.738Z,46.20
2017-08-26T09:11:29.023Z,47.97
2017-08-26T09:13:58.815Z,48.33
2017-08-26T09:16:28.495Z,44.33
2017-08-26T09:18:57.054Z,43.67
2017-08-26T09:21:25.359Z,44.67
2017-08-26T09:23:54.504Z,45.60
2017-08-26T09:26:24.156Z,41.37
2017-08-26T09:28:52.716Z,43.63
2017-08-26T09:31:22.410Z,41.60
2017-08-26T09:33:50.966Z,44.77
2017-08-26T09:36:19.252Z,41.67
2017-08-26T09:38:47.582Z,42.27
2017-08-26T09:41:17.219Z,41.57
2017-08-26T09:43:46.154Z,40.20
2017-08-26T09:46:14.484Z,41.23
2017-08-26T09:48:42.766Z,42.17
2017-08-26T09:51:12.186Z,40.47
2017-08-26T09:53:41.870Z,42.53
2017-08-26T09:56:10.816Z,42.00
2017-08-26T09:58:39.107Z,44.60
2017-08-26T10:01:08.835Z,37.97
2017-08-26T10:03:37.419Z,41.10
2017-08-26T10:06:06.491Z,42.70
2017-08-26T10:08:34.828Z,41.80
2017-08-26T10:11:04.616Z,38.30
2017-08-26T10:13:33.303Z,42.70
2017-08-26T10:16:04.242Z,40.70
2017-08-26T10:18:32.921Z,39.53
2017-08-26T10:21:01.603Z,47.23
2017-08-26T10:23:29.934Z,47.43
2017-08-26T10:25:58.224Z,47.83
2017-08-26T10:28:26.526Z,43.87
2017-08-26T10:30:56.035Z,48.37
2017-08-26T10:33:24.731Z,46.87
2017-08-26T10:35:54.523Z,46.90
2017-08-26T10:38:22.879Z,50.90
2017-08-26T10:40:51.936Z,51.20
2017-08-26T10:43:20.983Z,46.77
2017-08-26T10:45:50.671Z,51.10
2017-08-26T10:48:19.596Z,48.60
2017-08-26T10:50:48.282Z,48.23
2017-08-26T10:53:16.755Z,49.87
2017-08-26T10:55:45.440Z,49.13
2017-08-26T10:58:14.855Z,48.23
2017-08-26T11:00:43.195Z,44.70
2017-08-26T11:03:11.495Z,47.23
2017-08-26T11:05:40.934Z,45.77
2017-08-26T11:08:09.688Z,48.30
2017-08-26T11:10:38.033Z,46.03
2017-08-26T11:13:06.337Z,42.20
2017-08-26T11:15:36.211Z,42.10
2017-08-26T11:18:05.241Z,43.73
2017-08-26T11:20:34.664Z,42.73
2017-08-26T11:23:04.172Z,37.20
2017-08-26T11:25:32.850Z,39.00
2017-08-26T11:28:02.486Z,39.50
2017-08-26T11:30:30.687Z,43.63
2017-08-26T11:33:00.479Z,38.67
2017-08-26T11:35:30.302Z,37.80
2017-08-26T11:37:59.937Z,37.77
2017-08-26T11:40:28.499Z,38.13
2017-08-26T11:42:56.827Z,40.07
2017-08-26T11:45:25.531Z,41.23
2017-08-26T11:47:53.831Z,38.27
2017-08-26T11:50:23.640Z,38.27
2017-08-26T11:52:53.443Z,35.27
2017-08-26T11:55:23.260Z,41.23
2017-08-26T11:57:51.815Z,41.13
2017-08-26T12:00:20.103Z,31.50
2017-08-26T12:02:48.447Z,32.57
2017-08-26T12:05:16.725Z,33.17
2017-08-26T12:07:45.774Z,35.40
2017-08-26T12:10:15.455Z,30.73
2017-08-26T12:12:44.008Z,29.00
2017-08-26T12:15:13.642Z,27.67
2017-08-26T12:17:43.215Z,23.90
2017-08-26T12:20:12.843Z,24.77
2017-08-26T12:22:41.014Z,25.13
2017-08-26T12:25:09.381Z,25.37
2017-08-26T12:27:38.802Z,24.03
2017-08-26T12:30:07.117Z,21.77
2017-08-26T12:32:35.473Z,22.03
2017-08-26T12:35:03.755Z,20.10
2017-08-26T12:37:33.546Z,18.87
2017-08-26T12:40:01.895Z,22.20
2017-08-26T12:42:31.531Z,19.37
2017-08-26T12:45:00.455Z,21.20
2017-08-26T12:47:29.862Z,20.80
2017-08-26T12:49:59.651Z,19.23
2017-08-26T12:52:27.930Z,20.37
2017-08-26T12:54:56.398Z,21.63
2017-08-26T12:57:26.199Z,21.80
2017-08-26T12:59:55.886Z,21.00
2017-08-26T13:02:25.403Z,24.07
2017-08-26T13:04:54.331Z,22.50
2017-08-26T13:07:22.675Z,24.37
2017-08-26T13:09:50.963Z,19.30
2017-08-26T13:12:19.243Z,19.40
2017-08-26T13:14:47.879Z,17.03
2017-08-26T13:17:17.294Z,17.77
2017-08-26T13:19:45.979Z,16.70
2017-08-26T13:22:14.788Z,15.97
2017-08-26T13:24:44.418Z,14.30
2017-08-26T13:27:12.578Z,13.80
2017-08-26T13:29:42.422Z,14.80
2017-08-26T13:32:12.055Z,13.60
2017-08-26T13:34:41.574Z,12.80
2017-08-26T13:37:10.200Z,13.60
2017-08-26T13:39:39.994Z,12.57
2017-08-26T13:42:08.286Z,12.23
2017-08-26T13:44:36.619Z,11.63
2017-08-26T13:47:04.907Z,11.93
2017-08-26T13:49:34.331Z,14.07
2017-08-26T13:52:02.672Z,11.53
2017-08-26T13:54:30.959Z,10.13
2017-08-26T13:56:59.243Z,12.67
2017-08-26T13:59:27.580Z,12.87
2017-08-26T14:01:55.889Z,11.93
2017-08-26T14:04:25.689Z,13.47
2017-08-26T14:06:55.422Z,13.50
2017-08-26T14:09:24.354Z,15.73
2017-08-26T14:11:53.401Z,16.03
2017-08-26T14:14:23.103Z,12.07
2017-08-26T14:16:52.610Z,11.57
2017-08-26T14:19:21.902Z,13.33
2017-08-26T14:21:50.554Z,13.63
2017-08-26T14:24:20.079Z,15.47
2017-08-26T14:26:48.371Z,16.17
2017-08-26T14:29:16.705Z,11.90
2017-08-26T14:31:44.991Z,11.07
2017-08-26T14:34:13.272Z,11.93
2017-08-26T14:36:41.610Z,9.57
2017-08-26T14:39:11.032Z,10.57
2017-08-26T14:41:39.323Z,11.50
2017-08-26T14:44:09.044Z,11.03
2017-08-26T14:46:37.608Z,11.43
2017-08-26T14:49:07.252Z,12.33
2017-08-26T14:51:36.550Z,13.80
2017-08-26T14:54:05.252Z,13.80
2017-08-26T14:56:33.542Z,11.30
2017-08-26T14:59:03.237Z,15.10
2017-08-26T15:01:31.791Z,12.53
2017-08-26T15:04:00.074Z,12.63
2017-08-26T15:06:29.926Z,12.83
2017-08-26T15:08:58.212Z,12.50
2017-08-26T15:11:27.843Z,14.37
2017-08-26T15:13:56.487Z,11.67
2017-08-26T15:16:24.786Z,11.83
2017-08-26T15:18:53.076Z,11.30
2017-08-26T15:21:22.939Z,11.97
2017-08-26T15:23:51.219Z,10.30
2017-08-26T15:26:19.498Z,11.43
2017-08-26T15:28:47.863Z,12.50
2017-08-26T15:31:17.495Z,13.03
2017-08-26T15:33:46.046Z,14.87
2017-08-26T15:36:15.167Z,12.03
2017-08-26T15:38:44.790Z,12.10
2017-08-26T15:41:13.353Z,12.30
2017-08-26T15:43:41.694Z,13.57
2017-08-26T15:46:09.987Z,13.03
2017-08-26T15:48:39.631Z,14.07
2017-08-26T15:51:07.868Z,13.40
2017-08-26T15:53:36.174Z,12.43
2017-08-26T15:56:04.459Z,11.77
2017-08-26T15:58:32.787Z,14.20
2017-08-26T16:01:02.413Z,13.67
2017-08-26T16:03:30.967Z,12.10
2017-08-26T16:05:59.319Z,11.30
2017-08-26T16:08:28.967Z,11.73
2017-08-26T16:10:57.902Z,11.90
2017-08-26T16:13:27.739Z,11.00
2017-08-26T16:15:57.370Z,10.90
2017-08-26T16:18:27.034Z,10.30
2017-08-26T16:20:56.726Z,15.33
2017-08-26T16:23:26.270Z,15.50
2017-08-26T16:25:55.568Z,15.17
2017-08-26T16:28:26.726Z,12.57
2017-08-26T16:30:56.361Z,12.00
2017-08-26T16:33:24.531Z,13.50
2017-08-26T16:35:52.862Z,15.37
2017-08-26T16:38:21.915Z,15.53
2017-08-26T16:40:50.976Z,12.77
2017-08-26T16:43:19.319Z,15.10
2017-08-26T16:45:48.946Z,12.33
2017-08-26T16:48:17.115Z,12.73
2017-08-26T16:50:45.476Z,13.60
2017-08-26T16:53:15.251Z,8.97
2017-08-26T16:55:44.914Z,10.00
2017-08-26T16:58:13.887Z,11.27
2017-08-26T17:00:42.930Z,13.57
2017-08-26T17:03:12.583Z,9.83
2017-08-26T17:05:41.127Z,9.73
2017-08-26T17:08:09.412Z,7.90
2017-08-26T17:10:37.759Z,8.40
2017-08-26T17:13:06.051Z,7.80
2017-08-26T17:15:34.331Z,7.03
2017-08-26T17:18:02.658Z,6.50
2017-08-26T17:20:32.072Z,7.27
2017-08-26T17:23:00.346Z,7.93
2017-08-26T17:25:28.683Z,6.83
2017-08-26T17:27:58.310Z,6.53
2017-08-26T17:30:26.863Z,6.07
2017-08-26T17:32:55.191Z,11.80
2017-08-26T17:35:23.487Z,15.73
2017-08-26T17:37:53.121Z,10.43
2017-08-26T17:40:22.839Z,10.33
2017-08-26T17:42:52.474Z,15.43
2017-08-26T17:45:22.134Z,9.50
2017-08-26T17:47:51.227Z,9.80
2017-08-26T17:50:19.502Z,8.37
2017-08-26T17:52:47.778Z,9.47
2017-08-26T17:55:16.494Z,8.93
2017-08-26T17:57:45.558Z,9.20
2017-08-26T18:00:13.825Z,8.67
2017-08-26T18:02:42.171Z,10.60
2017-08-26T18:05:10.451Z,9.10
2017-08-26T18:07:40.255Z,9.30
2017-08-26T18:10:09.994Z,12.30
2017-08-26T18:12:38.931Z,11.83
2017-08-26T18:15:07.239Z,11.60
2017-08-26T18:17:36.972Z,10.10
2017-08-26T18:20:05.563Z,11.23
2017-08-26T18:22:35.455Z,10.77
2017-08-26T18:25:04.831Z,11.07
2017-08-26T18:27:33.171Z,10.43
2017-08-26T18:30:02.958Z,10.83
2017-08-26T18:32:33.007Z,10.47
2017-08-26T18:35:01.302Z,11.00
2017-08-26T18:37:29.606Z,10.60
2017-08-26T18:39:57.955Z,11.33
2017-08-26T18:42:26.240Z,11.87
2017-08-26T18:44:54.521Z,11.83
2017-08-26T18:47:22.912Z,12.03
2017-08-26T18:49:51.968Z,14.17
2017-08-26T18:52:21.014Z,13.60
2017-08-26T18:54:50.859Z,13.30
2017-08-26T18:57:19.146Z,15.50
2017-08-26T18:59:47.431Z,16.57
2017-08-26T19:02:16.543Z,15.67
2017-08-26T19:04:45.596Z,15.37
2017-08-26T19:07:14.653Z,16.27
2017-08-26T19:09:42.996Z,15.60
2017-08-26T19:12:11.311Z,15.03
2017-08-26T19:14:40.994Z,15.53
2017-08-26T19:17:09.211Z,16.50
2017-08-26T19:19:38.861Z,16.20
2017-08-26T19:22:07.448Z,14.53
2017-08-26T19:24:37.175Z,16.40
2017-08-26T19:27:05.745Z,16.57
2017-08-26T19:29:34.038Z,15.23
2017-08-26T19:32:02.370Z,16.60
2017-08-26T19:34:32.004Z,15.17
2017-08-26T19:37:00.930Z,16.57
2017-08-26T19:39:29.267Z,16.70
2017-08-26T19:41:59.054Z,16.13
2017-08-26T19:44:27.347Z,16.07
2017-08-26T19:46:56.450Z,16.07
2017-08-26T19:49:24.738Z,17.77
2017-08-26T19:51:54.370Z,16.07
2017-08-26T19:54:23.939Z,17.20
2017-08-26T19:56:52.862Z,18.30
2017-08-26T19:59:21.156Z,22.03
2017-08-26T20:01:50.850Z,18.33
2017-08-26T20:04:19.411Z,18.97
2017-08-26T20:06:47.691Z,20.40
2017-08-26T20:09:17.382Z,18.40
2017-08-26T20:11:45.944Z,20.23
2017-08-26T20:14:14.231Z,23.87
2017-08-26T20:16:43.953Z,20.47
2017-08-26T20:19:12.520Z,22.03
2017-08-26T20:21:40.817Z,22.33
2017-08-26T20:24:10.503Z,22.47
2017-08-26T20:26:40.186Z,23.67
2017-08-26T20:29:08.478Z,25.60
2017-08-26T20:31:36.886Z,25.60
2017-08-26T20:34:18.318Z,24.60
2017-08-26T20:36:46.959Z,23.20
2017-08-26T20:39:15.250Z,23.90
2017-08-26T20:41:45.039Z,25.13
2017-08-26T20:44:14.722Z,24.37
2017-08-26T20:46:43.283Z,26.07
2017-08-26T20:49:11.582Z,26.77
2017-08-26T20:51:41.324Z,28.70
2017-08-26T20:54:09.907Z,26.83
2017-08-26T20:56:38.606Z,25.47
2017-08-26T20:59:08.329Z,25.83
2017-08-26T21:01:36.498Z,25.97
2017-08-26T21:04:04.782Z,27.43
2017-08-26T21:06:33.114Z,28.60
2017-08-26T21:09:02.167Z,26.20
2017-08-26T21:11:30.451Z,26.80
2017-08-26T21:13:58.791Z,27.43
2017-08-26T21:16:28.375Z,27.77
2017-08-26T21:18:56.663Z,27.33
2017-08-26T21:21:26.370Z,25.67
2017-08-26T21:23:54.934Z,27.70
2017-08-26T21:26:23.218Z,26.57
2017-08-26T21:28:51.684Z,26.43
2017-08-26T21:31:21.318Z,26.73
2017-08-26T21:33:49.474Z,25.63
2017-08-26T21:36:17.822Z,26.70
2017-08-26T21:38:46.116Z,28.93
2017-08-26T21:41:15.746Z,29.07
2017-08-26T21:43:44.714Z,28.93
2017-08-26T21:46:13.764Z,29.20
2017-08-26T21:48:43.394Z,28.03
2017-08-26T21:51:12.039Z,30.27
2017-08-26T21:53:40.323Z,28.30
2017-08-26T21:56:08.628Z,28.80
2017-08-26T21:58:38.514Z,29.40
2017-08-26T22:01:06.822Z,27.40
2017-08-26T22:03:35.108Z,26.37
2017-08-26T22:06:03.466Z,27.33
2017-08-26T22:08:33.098Z,26.70
2017-08-26T22:11:01.258Z,28.47
2017-08-26T22:13:30.947Z,28.50
2017-08-26T22:15:59.507Z,24.97
2017-08-26T22:18:27.791Z,26.80
2017-08-26T22:20:56.550Z,25.63
2017-08-26T22:23:26.342Z,25.67
2017-08-26T22:25:54.637Z,27.57
2017-08-26T22:28:23.763Z,26.20
2017-08-26T22:30:52.821Z,24.47
2017-08-26T22:33:22.462Z,26.93
2017-08-26T22:35:50.679Z,28.37
2017-08-26T22:40:05.162Z,25.30
2017-08-26T22:42:33.406Z,27.63
2017-08-26T22:45:02.459Z,25.73
2017-08-26T22:47:30.743Z,27.80
2017-08-26T22:49:59.070Z,24.37
2017-08-26T22:52:27.355Z,27.77
2017-08-26T22:54:56.034Z,25.03
2017-08-26T22:57:24.396Z,28.30
2017-08-26T22:59:53.446Z,28.97
2017-08-26T23:02:21.730Z,25.93
2017-08-26T23:04:50.088Z,28.37
2017-08-26T23:07:18.375Z,26.53
2017-08-26T23:09:46.658Z,26.77
2017-08-26T23:12:16.351Z,29.17
2017-08-26T23:14:44.906Z,28.67
2017-08-26T23:17:13.958Z,29.60
2017-08-26T23:19:43.706Z,30.50
2017-08-26T23:22:12.266Z,30.60
2017-08-26T23:24:40.559Z,29.17
2017-08-26T23:27:08.928Z,31.73
2017-08-26T23:29:37.226Z,30.23
2017-08-26T23:32:05.529Z,32.07
2017-08-26T23:34:34.998Z,31.93
2017-08-26T23:37:04.636Z,32.33
2017-08-26T23:39:33.207Z,35.47
2017-08-26T23:42:01.535Z,30.60
2017-08-26T23:44:29.823Z,30.93
2017-08-26T23:46:59.458Z,31.17
2017-08-26T23:49:28.450Z,35.70
2017-08-26T23:51:58.079Z,32.73
2017-08-26T23:54:27.586Z,31.37
2017-08-26T23:56:55.822Z,31.90
2017-08-26T23:59:24.125Z,32.17
